CDG4833 ZSQD-ZUCK
Flight info
| Callsign | CDG4833 |
|---|---|
| Flight time | 2h 38m |
| Altitude | 27600 |
| Route | WFG W103 YQG W567 UNVON W4 LIMGI W152 TAREX W278 AVDIG W666 VINEX |
| Aircraft | B738/M-SDE2E3FGHIRWXY/LB1 |
Departure
| Time | 2026-04-22 11:47 |
|---|---|
| Airport | Qingdao Jiaodong International Airport (ZSQD) |
Arrival
| Time | 2026-04-22 14:26 |
|---|---|
| Airport | Chongqing Jiangbei International Airport (ZUCK) |
| Time | Latitude | Longitude | Altitude | Speed | Heading |
|---|---|---|---|---|---|
| 2026-04-22 11:07 | 36.36175 | 120.08361 | 38 ft | 0 kts | 12° |
| 2026-04-22 11:35 | 36.36174 | 120.08361 | 38 ft | 1 kts | 13° |
| 2026-04-22 11:35 | 36.36160 | 120.08356 | 38 ft | 2 kts | 12° |
| 2026-04-22 11:35 | 36.36145 | 120.08353 | 38 ft | 2 kts | 12° |
| 2026-04-22 11:35 | 36.36136 | 120.08350 | 38 ft | 2 kts | 6° |
| 2026-04-22 11:36 | 36.36122 | 120.08355 | 39 ft | 2 kts | 320° |
| 2026-04-22 11:36 | 36.36114 | 120.08368 | 39 ft | 0 kts | 288° |
| 2026-04-22 11:36 | 36.36113 | 120.08375 | 39 ft | 1 kts | 282° |
| 2026-04-22 11:36 | 36.36112 | 120.08377 | 39 ft | 0 kts | 283° |
| 2026-04-22 11:38 | 36.36115 | 120.08364 | 39 ft | 4 kts | 286° |
| 2026-04-22 11:38 | 36.36153 | 120.08167 | 38 ft | 15 kts | 282° |
| 2026-04-22 11:39 | 36.36174 | 120.08027 | 35 ft | 17 kts | 271° |
| 2026-04-22 11:39 | 36.36155 | 120.07906 | 35 ft | 10 kts | 253° |
| 2026-04-22 11:39 | 36.36180 | 120.07838 | 34 ft | 9 kts | 336° |
| 2026-04-22 11:39 | 36.36253 | 120.07812 | 33 ft | 12 kts | 342° |
| 2026-04-22 11:40 | 36.36351 | 120.07772 | 31 ft | 17 kts | 343° |
| 2026-04-22 11:40 | 36.36472 | 120.07725 | 28 ft | 18 kts | 341° |
| 2026-04-22 11:40 | 36.36591 | 120.07678 | 28 ft | 17 kts | 342° |
| 2026-04-22 11:40 | 36.36707 | 120.07633 | 28 ft | 17 kts | 342° |
| 2026-04-22 11:41 | 36.36825 | 120.07587 | 28 ft | 17 kts | 342° |
| 2026-04-22 11:41 | 36.36897 | 120.07570 | 28 ft | 8 kts | 19° |
| 2026-04-22 11:41 | 36.36928 | 120.07629 | 28 ft | 9 kts | 73° |
| 2026-04-22 11:41 | 36.36955 | 120.07733 | 28 ft | 15 kts | 72° |
| 2026-04-22 11:42 | 36.36995 | 120.07887 | 28 ft | 22 kts | 72° |
| 2026-04-22 11:42 | 36.37047 | 120.08092 | 28 ft | 27 kts | 72° |
| 2026-04-22 11:42 | 36.37104 | 120.08312 | 28 ft | 26 kts | 73° |
| 2026-04-22 11:42 | 36.37159 | 120.08528 | 28 ft | 25 kts | 72° |
| 2026-04-22 11:43 | 36.37212 | 120.08736 | 28 ft | 24 kts | 73° |
| 2026-04-22 11:43 | 36.37265 | 120.08937 | 28 ft | 24 kts | 72° |
| 2026-04-22 11:43 | 36.37314 | 120.09132 | 28 ft | 23 kts | 73° |
| 2026-04-22 11:43 | 36.37357 | 120.09297 | 28 ft | 10 kts | 72° |
| 2026-04-22 11:44 | 36.37388 | 120.09369 | 28 ft | 9 kts | 31° |
| 2026-04-22 11:44 | 36.37448 | 120.09363 | 28 ft | 10 kts | 342° |
| 2026-04-22 11:44 | 36.37542 | 120.09326 | 28 ft | 17 kts | 342° |
| 2026-04-22 11:44 | 36.37685 | 120.09270 | 28 ft | 23 kts | 342° |
| 2026-04-22 11:45 | 36.37838 | 120.09209 | 28 ft | 22 kts | 342° |
| 2026-04-22 11:45 | 36.37960 | 120.09161 | 28 ft | 9 kts | 342° |
| 2026-04-22 11:45 | 36.38018 | 120.09181 | 27 ft | 9 kts | 55° |
| 2026-04-22 11:45 | 36.38041 | 120.09262 | 25 ft | 10 kts | 70° |
| 2026-04-22 11:46 | 36.38052 | 120.09343 | 24 ft | 8 kts | 119° |
| 2026-04-22 11:46 | 36.38013 | 120.09364 | 25 ft | 0 kts | 161° |
| 2026-04-22 11:46 | 36.38001 | 120.09369 | 25 ft | 10 kts | 162° |
| 2026-04-22 11:47 | 36.37697 | 120.09488 | 28 ft | 79 kts | 162° |
| 2026-04-22 11:47 | 36.36973 | 120.09773 | 29 ft | 137 kts | 162° |
| 2026-04-22 11:47 | 36.35924 | 120.10188 | 178 ft | 170 kts | 163° |
| 2026-04-22 11:47 | 36.34837 | 120.10616 | 960 ft | 163 kts | 161° |
| 2026-04-22 11:48 | 36.33757 | 120.11034 | 1611 ft | 165 kts | 160° |
| 2026-04-22 11:48 | 36.32684 | 120.11453 | 2052 ft | 164 kts | 159° |
| 2026-04-22 11:48 | 36.31574 | 120.11893 | 2325 ft | 172 kts | 158° |
| 2026-04-22 11:48 | 36.30428 | 120.12344 | 2693 ft | 174 kts | 157° |
| 2026-04-22 11:49 | 36.29255 | 120.12802 | 3039 ft | 178 kts | 157° |
| 2026-04-22 11:49 | 36.27994 | 120.13302 | 3109 ft | 206 kts | 158° |
| 2026-04-22 11:49 | 36.26516 | 120.13892 | 2928 ft | 241 kts | 159° |
| 2026-04-22 11:49 | 36.24894 | 120.14524 | 3100 ft | 247 kts | 159° |
| 2026-04-22 11:50 | 36.23224 | 120.15170 | 3438 ft | 261 kts | 159° |
| 2026-04-22 11:50 | 36.21482 | 120.15846 | 3443 ft | 256 kts | 159° |
| 2026-04-22 11:50 | 36.19754 | 120.16516 | 3539 ft | 266 kts | 158° |
| 2026-04-22 11:50 | 36.17964 | 120.17215 | 4340 ft | 270 kts | 158° |
| 2026-04-22 11:51 | 36.16193 | 120.17902 | 5178 ft | 273 kts | 159° |
| 2026-04-22 11:51 | 36.14286 | 120.18265 | 5946 ft | 284 kts | 180° |
| 2026-04-22 11:51 | 36.12349 | 120.17667 | 6718 ft | 294 kts | 203° |
| 2026-04-22 11:51 | 36.10662 | 120.16228 | 7444 ft | 301 kts | 223° |
| 2026-04-22 11:52 | 36.09301 | 120.14286 | 8165 ft | 305 kts | 237° |
| 2026-04-22 11:52 | 36.08427 | 120.11912 | 8885 ft | 305 kts | 261° |
| 2026-04-22 11:52 | 36.08401 | 120.09355 | 9662 ft | 298 kts | 285° |
| 2026-04-22 11:52 | 36.09045 | 120.06960 | 10379 ft | 295 kts | 300° |
| 2026-04-22 11:53 | 36.10108 | 120.04758 | 10843 ft | 302 kts | 312° |
| 2026-04-22 11:53 | 36.11529 | 120.02821 | 11305 ft | 312 kts | 319° |
| 2026-04-22 11:53 | 36.13125 | 120.00916 | 11759 ft | 324 kts | 320° |
| 2026-04-22 11:53 | 36.14772 | 119.98965 | 12184 ft | 336 kts | 319° |
| 2026-04-22 11:54 | 36.16463 | 119.96911 | 12741 ft | 344 kts | 318° |
| 2026-04-22 11:54 | 36.18154 | 119.94803 | 13488 ft | 347 kts | 317° |
| 2026-04-22 11:54 | 36.19896 | 119.92755 | 14253 ft | 346 kts | 322° |
| 2026-04-22 11:54 | 36.21918 | 119.91164 | 14862 ft | 348 kts | 336° |
| 2026-04-22 11:55 | 36.24185 | 119.90151 | 15472 ft | 352 kts | 342° |
| 2026-04-22 11:55 | 36.26566 | 119.89304 | 16011 ft | 358 kts | 343° |
| 2026-04-22 11:55 | 36.28965 | 119.88478 | 16569 ft | 362 kts | 342° |
| 2026-04-22 11:55 | 36.31409 | 119.87602 | 17185 ft | 365 kts | 341° |
| 2026-04-22 11:56 | 36.33821 | 119.86682 | 17732 ft | 368 kts | 339° |
| 2026-04-22 11:56 | 36.36203 | 119.85435 | 18213 ft | 370 kts | 328° |
| 2026-04-22 11:56 | 36.38165 | 119.83454 | 18762 ft | 368 kts | 308° |
| 2026-04-22 11:56 | 36.39518 | 119.80787 | 19399 ft | 366 kts | 295° |
| 2026-04-22 11:57 | 36.40581 | 119.77946 | 19973 ft | 367 kts | 292° |
| 2026-04-22 11:57 | 36.41622 | 119.75053 | 20500 ft | 370 kts | 292° |
| 2026-04-22 11:57 | 36.42671 | 119.72133 | 21034 ft | 373 kts | 291° |
| 2026-04-22 11:57 | 36.43743 | 119.69176 | 21619 ft | 373 kts | 291° |
| 2026-04-22 11:58 | 36.44801 | 119.66278 | 22193 ft | 374 kts | 291° |
| 2026-04-22 11:58 | 36.45892 | 119.63306 | 22606 ft | 378 kts | 291° |
| 2026-04-22 11:58 | 36.46992 | 119.60319 | 23129 ft | 379 kts | 290° |
| 2026-04-22 11:58 | 36.48091 | 119.57340 | 23581 ft | 382 kts | 290° |
| 2026-04-22 11:59 | 36.49189 | 119.54358 | 24072 ft | 383 kts | 290° |
| 2026-04-22 11:59 | 36.50295 | 119.51353 | 24530 ft | 384 kts | 290° |
| 2026-04-22 11:59 | 36.51407 | 119.48332 | 25082 ft | 384 kts | 290° |
| 2026-04-22 11:59 | 36.52513 | 119.45325 | 25530 ft | 385 kts | 290° |
| 2026-04-22 12:00 | 36.53618 | 119.42310 | 25834 ft | 390 kts | 289° |
| 2026-04-22 12:00 | 36.54749 | 119.39223 | 26154 ft | 395 kts | 289° |
| 2026-04-22 12:00 | 36.55872 | 119.36154 | 26724 ft | 392 kts | 289° |
| 2026-04-22 12:00 | 36.57011 | 119.33043 | 27074 ft | 396 kts | 289° |
| 2026-04-22 12:01 | 36.58143 | 119.29948 | 27540 ft | 395 kts | 289° |
| 2026-04-22 12:01 | 36.59290 | 119.26812 | 27633 ft | 394 kts | 289° |
| 2026-04-22 12:01 | 36.60405 | 119.23765 | 27626 ft | 389 kts | 288° |
| 2026-04-22 12:01 | 36.61527 | 119.20692 | 27625 ft | 391 kts | 288° |
| 2026-04-22 12:02 | 36.62648 | 119.17605 | 27623 ft | 390 kts | 288° |
| 2026-04-22 12:02 | 36.63670 | 119.14496 | 27617 ft | 386 kts | 285° |
| 2026-04-22 12:02 | 36.64469 | 119.11337 | 27624 ft | 384 kts | 279° |
| 2026-04-22 12:02 | 36.65027 | 119.08137 | 27626 ft | 380 kts | 276° |
| 2026-04-22 12:03 | 36.65440 | 119.04851 | 27630 ft | 380 kts | 274° |
| 2026-04-22 12:03 | 36.65774 | 119.01627 | 27619 ft | 380 kts | 273° |
| 2026-04-22 12:03 | 36.66090 | 118.98341 | 27628 ft | 379 kts | 273° |
| 2026-04-22 12:03 | 36.66396 | 118.95103 | 27633 ft | 379 kts | 273° |
| 2026-04-22 12:04 | 36.66705 | 118.91859 | 27634 ft | 379 kts | 273° |
| 2026-04-22 12:04 | 36.67017 | 118.88628 | 27626 ft | 378 kts | 273° |
| 2026-04-22 12:04 | 36.67332 | 118.85365 | 27627 ft | 379 kts | 273° |
| 2026-04-22 12:04 | 36.67647 | 118.82121 | 27629 ft | 378 kts | 273° |
| 2026-04-22 12:05 | 36.67961 | 118.78912 | 27627 ft | 378 kts | 273° |
| 2026-04-22 12:05 | 36.68278 | 118.75650 | 27625 ft | 381 kts | 274° |
| 2026-04-22 12:05 | 36.68594 | 118.72388 | 27624 ft | 378 kts | 273° |
| 2026-04-22 12:05 | 36.68908 | 118.69152 | 27630 ft | 379 kts | 273° |
| 2026-04-22 12:06 | 36.69227 | 118.65854 | 27619 ft | 382 kts | 273° |
| 2026-04-22 12:06 | 36.69541 | 118.62618 | 27620 ft | 377 kts | 273° |
| 2026-04-22 12:06 | 36.69854 | 118.59390 | 27628 ft | 377 kts | 273° |
| 2026-04-22 12:06 | 36.70169 | 118.56113 | 27625 ft | 382 kts | 273° |
| 2026-04-22 12:07 | 36.70484 | 118.52819 | 27624 ft | 382 kts | 274° |
| 2026-04-22 12:07 | 36.70793 | 118.49583 | 27621 ft | 380 kts | 274° |
| 2026-04-22 12:07 | 36.71107 | 118.46299 | 27625 ft | 380 kts | 273° |
| 2026-04-22 12:07 | 36.71415 | 118.43057 | 27624 ft | 381 kts | 273° |
| 2026-04-22 12:08 | 36.71726 | 118.39770 | 27616 ft | 380 kts | 273° |
| 2026-04-22 12:08 | 36.72031 | 118.36534 | 27630 ft | 379 kts | 273° |
| 2026-04-22 12:08 | 36.72339 | 118.33263 | 27622 ft | 381 kts | 272° |
| 2026-04-22 12:08 | 36.72642 | 118.29998 | 27622 ft | 382 kts | 272° |
| 2026-04-22 12:09 | 36.72950 | 118.26682 | 27616 ft | 381 kts | 273° |
| 2026-04-22 12:09 | 36.73256 | 118.23429 | 27618 ft | 382 kts | 273° |
| 2026-04-22 12:09 | 36.73562 | 118.20180 | 27620 ft | 380 kts | 273° |
| 2026-04-22 12:09 | 36.73884 | 118.16914 | 27620 ft | 379 kts | 273° |
| 2026-04-22 12:10 | 36.74216 | 118.13649 | 27621 ft | 383 kts | 274° |
| 2026-04-22 12:10 | 36.74557 | 118.10339 | 27621 ft | 382 kts | 274° |
| 2026-04-22 12:10 | 36.74890 | 118.07081 | 27618 ft | 382 kts | 274° |
| 2026-04-22 12:10 | 36.75225 | 118.03812 | 27615 ft | 383 kts | 273° |
| 2026-04-22 12:11 | 36.75561 | 118.00529 | 27611 ft | 382 kts | 273° |
| 2026-04-22 12:11 | 36.75894 | 117.97239 | 27614 ft | 382 kts | 273° |
| 2026-04-22 12:11 | 36.76225 | 117.93942 | 27617 ft | 383 kts | 274° |
| 2026-04-22 12:11 | 36.76555 | 117.90658 | 27615 ft | 382 kts | 273° |
| 2026-04-22 12:12 | 36.76878 | 117.87405 | 27603 ft | 384 kts | 273° |
| 2026-04-22 12:12 | 36.77203 | 117.84093 | 27591 ft | 384 kts | 273° |
| 2026-04-22 12:12 | 36.77525 | 117.80801 | 27599 ft | 383 kts | 273° |
| 2026-04-22 12:12 | 36.77845 | 117.77520 | 27609 ft | 383 kts | 273° |
| 2026-04-22 12:13 | 36.78167 | 117.74182 | 27596 ft | 387 kts | 273° |
| 2026-04-22 12:13 | 36.78484 | 117.70890 | 27603 ft | 386 kts | 274° |
| 2026-04-22 12:13 | 36.78809 | 117.67597 | 27594 ft | 387 kts | 273° |
| 2026-04-22 12:13 | 36.79138 | 117.64266 | 27596 ft | 385 kts | 273° |
| 2026-04-22 12:14 | 36.79468 | 117.60928 | 27592 ft | 388 kts | 273° |
| 2026-04-22 12:14 | 36.79792 | 117.57624 | 27593 ft | 388 kts | 274° |
| 2026-04-22 12:14 | 36.80116 | 117.54266 | 27598 ft | 387 kts | 273° |
| 2026-04-22 12:14 | 36.80429 | 117.50956 | 27592 ft | 387 kts | 273° |
| 2026-04-22 12:15 | 36.80742 | 117.47635 | 27580 ft | 389 kts | 274° |
| 2026-04-22 12:15 | 36.81065 | 117.44273 | 27592 ft | 386 kts | 273° |
| 2026-04-22 12:15 | 36.81379 | 117.40945 | 27579 ft | 387 kts | 273° |
| 2026-04-22 12:15 | 36.81689 | 117.37653 | 27590 ft | 387 kts | 273° |
| 2026-04-22 12:16 | 36.82008 | 117.34307 | 27588 ft | 389 kts | 272° |
| 2026-04-22 12:16 | 36.82330 | 117.30934 | 27581 ft | 389 kts | 273° |
| 2026-04-22 12:16 | 36.82697 | 117.27602 | 27580 ft | 388 kts | 275° |
| 2026-04-22 12:16 | 36.83305 | 117.24322 | 27585 ft | 394 kts | 282° |
| 2026-04-22 12:17 | 36.84389 | 117.21156 | 27580 ft | 401 kts | 292° |
| 2026-04-22 12:17 | 36.85935 | 117.18240 | 27589 ft | 410 kts | 301° |
| 2026-04-22 12:17 | 36.87775 | 117.15522 | 27584 ft | 413 kts | 306° |
| 2026-04-22 12:17 | 36.89753 | 117.12852 | 27573 ft | 417 kts | 307° |
| 2026-04-22 12:18 | 36.91738 | 117.10259 | 27570 ft | 417 kts | 307° |
| 2026-04-22 12:18 | 36.93763 | 117.07644 | 27573 ft | 416 kts | 307° |
| 2026-04-22 12:18 | 36.95775 | 117.05041 | 27569 ft | 418 kts | 307° |
| 2026-04-22 12:18 | 36.97775 | 117.02447 | 27583 ft | 419 kts | 307° |
| 2026-04-22 12:19 | 36.99802 | 116.99802 | 27577 ft | 422 kts | 307° |
| 2026-04-22 12:19 | 37.01805 | 116.97174 | 27569 ft | 420 kts | 307° |
| 2026-04-22 12:19 | 37.03833 | 116.94508 | 27566 ft | 418 kts | 307° |
| 2026-04-22 12:19 | 37.05794 | 116.91878 | 27573 ft | 417 kts | 305° |
| 2026-04-22 12:20 | 37.07567 | 116.89052 | 27561 ft | 410 kts | 297° |
| 2026-04-22 12:20 | 37.08899 | 116.85940 | 27579 ft | 404 kts | 287° |
| 2026-04-22 12:20 | 37.09756 | 116.82613 | 27563 ft | 395 kts | 279° |
| 2026-04-22 12:20 | 37.10248 | 116.79287 | 27568 ft | 393 kts | 274° |
| 2026-04-22 12:21 | 37.10459 | 116.75882 | 27571 ft | 389 kts | 266° |
| 2026-04-22 12:21 | 37.10195 | 116.72519 | 27567 ft | 385 kts | 257° |
| 2026-04-22 12:21 | 37.09497 | 116.69334 | 27567 ft | 384 kts | 250° |
| 2026-04-22 12:21 | 37.08551 | 116.66199 | 27575 ft | 384 kts | 248° |
| 2026-04-22 12:22 | 37.07524 | 116.63129 | 27561 ft | 383 kts | 247° |
| 2026-04-22 12:22 | 37.06475 | 116.60074 | 27568 ft | 384 kts | 246° |
| 2026-04-22 12:22 | 37.05405 | 116.56989 | 27571 ft | 385 kts | 246° |
| 2026-04-22 12:22 | 37.04350 | 116.53939 | 27567 ft | 384 kts | 246° |
| 2026-04-22 12:23 | 37.03281 | 116.50841 | 27563 ft | 384 kts | 246° |
| 2026-04-22 12:23 | 37.02238 | 116.47790 | 27567 ft | 386 kts | 246° |
| 2026-04-22 12:23 | 37.01174 | 116.44700 | 27573 ft | 383 kts | 246° |
| 2026-04-22 12:23 | 37.00119 | 116.41641 | 27569 ft | 384 kts | 246° |
| 2026-04-22 12:24 | 36.99075 | 116.38612 | 27574 ft | 385 kts | 246° |
| 2026-04-22 12:24 | 36.98007 | 116.35512 | 27572 ft | 386 kts | 246° |
| 2026-04-22 12:24 | 36.96948 | 116.32437 | 27566 ft | 385 kts | 246° |
| 2026-04-22 12:24 | 36.95890 | 116.29374 | 27574 ft | 382 kts | 246° |
| 2026-04-22 12:25 | 36.94848 | 116.26346 | 27572 ft | 383 kts | 246° |
| 2026-04-22 12:25 | 36.93792 | 116.23272 | 27572 ft | 382 kts | 246° |
| 2026-04-22 12:25 | 36.92755 | 116.20263 | 27578 ft | 383 kts | 246° |
| 2026-04-22 12:25 | 36.91689 | 116.17181 | 27569 ft | 383 kts | 246° |
| 2026-04-22 12:26 | 36.90648 | 116.14161 | 27574 ft | 382 kts | 246° |
| 2026-04-22 12:26 | 36.89597 | 116.11114 | 27576 ft | 384 kts | 246° |
| 2026-04-22 12:26 | 36.88536 | 116.08058 | 27574 ft | 383 kts | 246° |
| 2026-04-22 12:26 | 36.87472 | 116.04990 | 27572 ft | 383 kts | 246° |
| 2026-04-22 12:27 | 36.86414 | 116.01932 | 27564 ft | 385 kts | 246° |
| 2026-04-22 12:27 | 36.85361 | 115.98902 | 27574 ft | 384 kts | 246° |
| 2026-04-22 12:27 | 36.84297 | 115.95841 | 27585 ft | 382 kts | 246° |
| 2026-04-22 12:27 | 36.83237 | 115.92802 | 27579 ft | 383 kts | 246° |
| 2026-04-22 12:28 | 36.82183 | 115.89784 | 27593 ft | 383 kts | 246° |
| 2026-04-22 12:28 | 36.81113 | 115.86716 | 27586 ft | 381 kts | 246° |
| 2026-04-22 12:28 | 36.80067 | 115.83717 | 27595 ft | 382 kts | 247° |
| 2026-04-22 12:28 | 36.78999 | 115.80664 | 27600 ft | 383 kts | 246° |
| 2026-04-22 12:29 | 36.77942 | 115.77644 | 27587 ft | 381 kts | 247° |
| 2026-04-22 12:29 | 36.76891 | 115.74646 | 27594 ft | 379 kts | 247° |
| 2026-04-22 12:29 | 36.75824 | 115.71605 | 27595 ft | 380 kts | 246° |
| 2026-04-22 12:29 | 36.74770 | 115.68621 | 27593 ft | 382 kts | 247° |
| 2026-04-22 12:30 | 36.72634 | 115.62557 | 27589 ft | 379 kts | 247° |
| 2026-04-22 12:30 | 36.71571 | 115.59541 | 27598 ft | 379 kts | 247° |
| 2026-04-22 12:30 | 36.70515 | 115.56554 | 27595 ft | 382 kts | 247° |
| 2026-04-22 12:31 | 36.69449 | 115.53535 | 27598 ft | 379 kts | 247° |
| 2026-04-22 12:31 | 36.68393 | 115.50551 | 27603 ft | 380 kts | 247° |
| 2026-04-22 12:31 | 36.67319 | 115.47509 | 27601 ft | 381 kts | 247° |
| 2026-04-22 12:31 | 36.66254 | 115.44492 | 27593 ft | 380 kts | 247° |
| 2026-04-22 12:32 | 36.65193 | 115.41509 | 27594 ft | 380 kts | 247° |
| 2026-04-22 12:32 | 36.63062 | 115.35503 | 27601 ft | 379 kts | 248° |
| 2026-04-22 12:32 | 36.61986 | 115.32472 | 27599 ft | 380 kts | 246° |
| 2026-04-22 12:33 | 36.60923 | 115.29485 | 27590 ft | 381 kts | 247° |
| 2026-04-22 12:33 | 36.59852 | 115.26485 | 27596 ft | 380 kts | 246° |
| 2026-04-22 12:33 | 36.58785 | 115.23477 | 27595 ft | 380 kts | 247° |
| 2026-04-22 12:33 | 36.57718 | 115.20472 | 27592 ft | 380 kts | 247° |
| 2026-04-22 12:34 | 36.56597 | 115.17522 | 27605 ft | 380 kts | 244° |
| 2026-04-22 12:34 | 36.55250 | 115.14665 | 27602 ft | 380 kts | 238° |
| 2026-04-22 12:34 | 36.53618 | 115.12104 | 27597 ft | 384 kts | 231° |
| 2026-04-22 12:34 | 36.51751 | 115.09692 | 27599 ft | 386 kts | 228° |
| 2026-04-22 12:35 | 36.49825 | 115.07400 | 27596 ft | 385 kts | 227° |
| 2026-04-22 12:35 | 36.47849 | 115.05109 | 27593 ft | 386 kts | 227° |
| 2026-04-22 12:35 | 36.45902 | 115.02856 | 27609 ft | 387 kts | 227° |
| 2026-04-22 12:35 | 36.43919 | 115.00563 | 27603 ft | 387 kts | 227° |
| 2026-04-22 12:36 | 36.41964 | 114.98290 | 27588 ft | 385 kts | 227° |
| 2026-04-22 12:36 | 36.40034 | 114.96042 | 27603 ft | 386 kts | 227° |
| 2026-04-22 12:36 | 36.38120 | 114.93690 | 27602 ft | 386 kts | 230° |
| 2026-04-22 12:36 | 36.36385 | 114.91190 | 27585 ft | 380 kts | 235° |
| 2026-04-22 12:37 | 36.34852 | 114.88516 | 27606 ft | 378 kts | 239° |
| 2026-04-22 12:37 | 36.33467 | 114.85761 | 27604 ft | 380 kts | 242° |
| 2026-04-22 12:37 | 36.32119 | 114.82918 | 27608 ft | 379 kts | 242° |
| 2026-04-22 12:37 | 36.30819 | 114.80134 | 27597 ft | 378 kts | 242° |
| 2026-04-22 12:38 | 36.29502 | 114.77309 | 27600 ft | 379 kts | 242° |
| 2026-04-22 12:38 | 36.28172 | 114.74471 | 27613 ft | 377 kts | 242° |
| 2026-04-22 12:38 | 36.26852 | 114.71683 | 27598 ft | 380 kts | 242° |
| 2026-04-22 12:38 | 36.25501 | 114.68887 | 27608 ft | 377 kts | 241° |
| 2026-04-22 12:39 | 36.24137 | 114.66105 | 27595 ft | 379 kts | 241° |
| 2026-04-22 12:39 | 36.21412 | 114.60564 | 27608 ft | 376 kts | 242° |
| 2026-04-22 12:39 | 36.20052 | 114.57799 | 27600 ft | 376 kts | 242° |
| 2026-04-22 12:40 | 36.18689 | 114.55032 | 27615 ft | 376 kts | 241° |
| 2026-04-22 12:40 | 36.17334 | 114.52278 | 27605 ft | 375 kts | 241° |
| 2026-04-22 12:40 | 36.15976 | 114.49520 | 27605 ft | 376 kts | 242° |
| 2026-04-22 12:40 | 36.14628 | 114.46780 | 27600 ft | 376 kts | 241° |
| 2026-04-22 12:41 | 36.13266 | 114.44021 | 27606 ft | 374 kts | 242° |
| 2026-04-22 12:41 | 36.11920 | 114.41280 | 27610 ft | 375 kts | 242° |
| 2026-04-22 12:41 | 36.10555 | 114.38509 | 27612 ft | 374 kts | 242° |
| 2026-04-22 12:41 | 36.09204 | 114.35764 | 27613 ft | 374 kts | 241° |
| 2026-04-22 12:42 | 36.07861 | 114.33044 | 27608 ft | 376 kts | 241° |
| 2026-04-22 12:42 | 36.06484 | 114.30261 | 27606 ft | 374 kts | 241° |
| 2026-04-22 12:42 | 36.05122 | 114.27505 | 27602 ft | 375 kts | 242° |
| 2026-04-22 12:42 | 36.03778 | 114.24786 | 27608 ft | 374 kts | 242° |
| 2026-04-22 12:43 | 36.02428 | 114.22051 | 27611 ft | 373 kts | 241° |
| 2026-04-22 12:43 | 36.01076 | 114.19319 | 27609 ft | 372 kts | 242° |
| 2026-04-22 12:43 | 35.99721 | 114.16589 | 27621 ft | 373 kts | 242° |
| 2026-04-22 12:43 | 35.98364 | 114.13852 | 27608 ft | 371 kts | 241° |
| 2026-04-22 12:44 | 35.97026 | 114.11161 | 27612 ft | 371 kts | 242° |
| 2026-04-22 12:44 | 35.95661 | 114.08421 | 27612 ft | 372 kts | 241° |
| 2026-04-22 12:44 | 35.94309 | 114.05709 | 27624 ft | 371 kts | 242° |
| 2026-04-22 12:44 | 35.92967 | 114.03014 | 27621 ft | 370 kts | 242° |
| 2026-04-22 12:45 | 35.91610 | 114.00288 | 27623 ft | 371 kts | 242° |
| 2026-04-22 12:45 | 35.90265 | 113.97593 | 27626 ft | 372 kts | 242° |
| 2026-04-22 12:45 | 35.88905 | 113.94864 | 27629 ft | 370 kts | 242° |
| 2026-04-22 12:45 | 35.87569 | 113.92185 | 27615 ft | 370 kts | 242° |
| 2026-04-22 12:46 | 35.86205 | 113.89456 | 27634 ft | 370 kts | 242° |
| 2026-04-22 12:46 | 35.84862 | 113.86774 | 27633 ft | 370 kts | 242° |
| 2026-04-22 12:46 | 35.83506 | 113.84074 | 27633 ft | 370 kts | 242° |
| 2026-04-22 12:46 | 35.82161 | 113.81396 | 27622 ft | 371 kts | 242° |
| 2026-04-22 12:47 | 35.80799 | 113.78682 | 27621 ft | 370 kts | 242° |
| 2026-04-22 12:47 | 35.79452 | 113.76007 | 27629 ft | 370 kts | 242° |
| 2026-04-22 12:47 | 35.78087 | 113.73280 | 27628 ft | 370 kts | 242° |
| 2026-04-22 12:47 | 35.76736 | 113.70585 | 27633 ft | 369 kts | 242° |
| 2026-04-22 12:48 | 35.75396 | 113.67911 | 27628 ft | 370 kts | 242° |
| 2026-04-22 12:48 | 35.74033 | 113.65187 | 27634 ft | 370 kts | 242° |
| 2026-04-22 12:48 | 35.72676 | 113.62493 | 27639 ft | 370 kts | 242° |
| 2026-04-22 12:48 | 35.71330 | 113.59821 | 27637 ft | 370 kts | 242° |
| 2026-04-22 12:49 | 35.69966 | 113.57127 | 27651 ft | 369 kts | 242° |
| 2026-04-22 12:49 | 35.68613 | 113.54458 | 27651 ft | 369 kts | 242° |
| 2026-04-22 12:49 | 35.67266 | 113.51795 | 27657 ft | 370 kts | 242° |
| 2026-04-22 12:49 | 35.65905 | 113.49099 | 27672 ft | 369 kts | 242° |
| 2026-04-22 12:50 | 35.64550 | 113.46421 | 27662 ft | 372 kts | 242° |
| 2026-04-22 12:50 | 35.63192 | 113.43743 | 27655 ft | 370 kts | 242° |
| 2026-04-22 12:50 | 35.61822 | 113.41042 | 27650 ft | 370 kts | 242° |
| 2026-04-22 12:50 | 35.60473 | 113.38376 | 27661 ft | 371 kts | 242° |
| 2026-04-22 12:51 | 35.59127 | 113.35677 | 27661 ft | 369 kts | 242° |
| 2026-04-22 12:51 | 35.57807 | 113.32980 | 27662 ft | 369 kts | 243° |
| 2026-04-22 12:51 | 35.56493 | 113.30287 | 27651 ft | 371 kts | 243° |
| 2026-04-22 12:51 | 35.55152 | 113.27554 | 27652 ft | 370 kts | 242° |
| 2026-04-22 12:52 | 35.53833 | 113.24871 | 27651 ft | 370 kts | 243° |
| 2026-04-22 12:52 | 35.52505 | 113.22182 | 27650 ft | 371 kts | 242° |
| 2026-04-22 12:52 | 35.51159 | 113.19461 | 27657 ft | 370 kts | 242° |
| 2026-04-22 12:52 | 35.49831 | 113.16772 | 27634 ft | 372 kts | 242° |
| 2026-04-22 12:53 | 35.48489 | 113.14063 | 27642 ft | 370 kts | 242° |
| 2026-04-22 12:53 | 35.47167 | 113.11395 | 27629 ft | 370 kts | 242° |
| 2026-04-22 12:53 | 35.45836 | 113.08710 | 27636 ft | 369 kts | 242° |
| 2026-04-22 12:53 | 35.44497 | 113.06007 | 27647 ft | 371 kts | 242° |
| 2026-04-22 12:54 | 35.43148 | 113.03289 | 27634 ft | 373 kts | 242° |
| 2026-04-22 12:54 | 35.41813 | 113.00600 | 27632 ft | 371 kts | 242° |
| 2026-04-22 12:54 | 35.40469 | 112.97894 | 27640 ft | 371 kts | 242° |
| 2026-04-22 12:54 | 35.39125 | 112.95194 | 27633 ft | 372 kts | 242° |
| 2026-04-22 12:55 | 35.37788 | 112.92509 | 27649 ft | 370 kts | 242° |
| 2026-04-22 12:55 | 35.36442 | 112.89811 | 27634 ft | 370 kts | 243° |
| 2026-04-22 12:55 | 35.35109 | 112.87139 | 27635 ft | 371 kts | 243° |
| 2026-04-22 12:55 | 35.33772 | 112.84462 | 27631 ft | 369 kts | 242° |
| 2026-04-22 12:56 | 35.32424 | 112.81763 | 27637 ft | 370 kts | 243° |
| 2026-04-22 12:56 | 35.31086 | 112.79085 | 27634 ft | 370 kts | 242° |
| 2026-04-22 12:56 | 35.29740 | 112.76397 | 27635 ft | 369 kts | 243° |
| 2026-04-22 12:56 | 35.28397 | 112.73714 | 27639 ft | 369 kts | 242° |
| 2026-04-22 12:57 | 35.27065 | 112.71055 | 27648 ft | 371 kts | 243° |
| 2026-04-22 12:57 | 35.25706 | 112.68340 | 27634 ft | 373 kts | 242° |
| 2026-04-22 12:57 | 35.24369 | 112.65675 | 27644 ft | 369 kts | 242° |
| 2026-04-22 12:57 | 35.23021 | 112.62994 | 27637 ft | 370 kts | 243° |
| 2026-04-22 12:58 | 35.21673 | 112.60313 | 27630 ft | 370 kts | 243° |
| 2026-04-22 12:58 | 35.20323 | 112.57633 | 27630 ft | 368 kts | 243° |
| 2026-04-22 12:58 | 35.18994 | 112.54973 | 27634 ft | 372 kts | 243° |
| 2026-04-22 12:58 | 35.17651 | 112.52261 | 27646 ft | 372 kts | 243° |
| 2026-04-22 12:59 | 35.16317 | 112.49562 | 27638 ft | 371 kts | 243° |
| 2026-04-22 12:59 | 35.15000 | 112.46900 | 27625 ft | 369 kts | 243° |
| 2026-04-22 12:59 | 35.13666 | 112.44209 | 27640 ft | 370 kts | 243° |
| 2026-04-22 12:59 | 35.12343 | 112.41539 | 27635 ft | 371 kts | 243° |
| 2026-04-22 13:00 | 35.11001 | 112.38834 | 27623 ft | 369 kts | 243° |
| 2026-04-22 13:00 | 35.09667 | 112.36152 | 27634 ft | 371 kts | 244° |
| 2026-04-22 13:00 | 35.08321 | 112.33446 | 27627 ft | 371 kts | 243° |
| 2026-04-22 13:00 | 35.06991 | 112.30779 | 27616 ft | 370 kts | 243° |
| 2026-04-22 13:01 | 35.05648 | 112.28088 | 27634 ft | 371 kts | 243° |
| 2026-04-22 13:01 | 35.04326 | 112.25440 | 27616 ft | 368 kts | 243° |
| 2026-04-22 13:01 | 35.02994 | 112.22774 | 27629 ft | 369 kts | 243° |
| 2026-04-22 13:01 | 35.01652 | 112.20088 | 27628 ft | 371 kts | 243° |
| 2026-04-22 13:02 | 35.00318 | 112.17419 | 27627 ft | 370 kts | 243° |
| 2026-04-22 13:02 | 34.98972 | 112.14733 | 27632 ft | 369 kts | 243° |
| 2026-04-22 13:02 | 34.97644 | 112.12082 | 27635 ft | 369 kts | 243° |
| 2026-04-22 13:02 | 34.96294 | 112.09392 | 27621 ft | 371 kts | 243° |
| 2026-04-22 13:03 | 34.94953 | 112.06720 | 27636 ft | 371 kts | 243° |
| 2026-04-22 13:03 | 34.93598 | 112.04021 | 27631 ft | 371 kts | 243° |
| 2026-04-22 13:03 | 34.92260 | 112.01357 | 27634 ft | 371 kts | 243° |
| 2026-04-22 13:03 | 34.90922 | 111.98695 | 27635 ft | 369 kts | 243° |
| 2026-04-22 13:04 | 34.89586 | 111.96034 | 27627 ft | 371 kts | 242° |
| 2026-04-22 13:04 | 34.88231 | 111.93345 | 27634 ft | 372 kts | 243° |
| 2026-04-22 13:04 | 34.86876 | 111.90656 | 27640 ft | 371 kts | 243° |
| 2026-04-22 13:04 | 34.85547 | 111.87989 | 27639 ft | 371 kts | 243° |
| 2026-04-22 13:05 | 34.84215 | 111.85304 | 27641 ft | 370 kts | 243° |
| 2026-04-22 13:05 | 34.82883 | 111.82616 | 27627 ft | 369 kts | 243° |
| 2026-04-22 13:05 | 34.81570 | 111.79977 | 27631 ft | 368 kts | 243° |
| 2026-04-22 13:05 | 34.80230 | 111.77293 | 27633 ft | 370 kts | 243° |
| 2026-04-22 13:06 | 34.78902 | 111.74629 | 27632 ft | 370 kts | 244° |
| 2026-04-22 13:06 | 34.77576 | 111.71976 | 27637 ft | 369 kts | 243° |
| 2026-04-22 13:06 | 34.76238 | 111.69302 | 27641 ft | 371 kts | 243° |
| 2026-04-22 13:06 | 34.74885 | 111.66591 | 27634 ft | 369 kts | 244° |
| 2026-04-22 13:07 | 34.73557 | 111.63934 | 27643 ft | 370 kts | 243° |
| 2026-04-22 13:07 | 34.72207 | 111.61232 | 27643 ft | 371 kts | 243° |
| 2026-04-22 13:07 | 34.70874 | 111.58584 | 27635 ft | 369 kts | 243° |
| 2026-04-22 13:07 | 34.69528 | 111.55898 | 27641 ft | 370 kts | 243° |
| 2026-04-22 13:08 | 34.68185 | 111.53222 | 27641 ft | 370 kts | 243° |
| 2026-04-22 13:08 | 34.66842 | 111.50537 | 27652 ft | 371 kts | 243° |
| 2026-04-22 13:08 | 34.65492 | 111.47850 | 27645 ft | 368 kts | 244° |
| 2026-04-22 13:08 | 34.64154 | 111.45178 | 27643 ft | 369 kts | 243° |
| 2026-04-22 13:09 | 34.62825 | 111.42531 | 27648 ft | 370 kts | 243° |
| 2026-04-22 13:09 | 34.61488 | 111.39884 | 27660 ft | 369 kts | 243° |
| 2026-04-22 13:09 | 34.60145 | 111.37221 | 27659 ft | 370 kts | 243° |
| 2026-04-22 13:09 | 34.58817 | 111.34583 | 27662 ft | 370 kts | 243° |
| 2026-04-22 13:10 | 34.57464 | 111.31905 | 27664 ft | 370 kts | 243° |
| 2026-04-22 13:10 | 34.56130 | 111.29257 | 27659 ft | 369 kts | 243° |
| 2026-04-22 13:10 | 34.54783 | 111.26592 | 27676 ft | 369 kts | 243° |
| 2026-04-22 13:10 | 34.53453 | 111.23960 | 27666 ft | 368 kts | 243° |
| 2026-04-22 13:11 | 34.52106 | 111.21311 | 27676 ft | 369 kts | 243° |
| 2026-04-22 13:11 | 34.50775 | 111.18690 | 27676 ft | 370 kts | 243° |
| 2026-04-22 13:11 | 34.49421 | 111.16021 | 27674 ft | 368 kts | 243° |
| 2026-04-22 13:11 | 34.48079 | 111.13375 | 27668 ft | 369 kts | 243° |
| 2026-04-22 13:12 | 34.46725 | 111.10697 | 27669 ft | 369 kts | 243° |
| 2026-04-22 13:12 | 34.45394 | 111.08084 | 27669 ft | 366 kts | 243° |
| 2026-04-22 13:12 | 34.44051 | 111.05435 | 27670 ft | 368 kts | 243° |
| 2026-04-22 13:12 | 34.42704 | 111.02786 | 27669 ft | 368 kts | 243° |
| 2026-04-22 13:13 | 34.41388 | 111.00176 | 27660 ft | 367 kts | 243° |
| 2026-04-22 13:13 | 34.40055 | 110.97509 | 27670 ft | 369 kts | 244° |
| 2026-04-22 13:13 | 34.38736 | 110.94857 | 27669 ft | 369 kts | 244° |
| 2026-04-22 13:13 | 34.37408 | 110.92181 | 27668 ft | 368 kts | 243° |
| 2026-04-22 13:14 | 34.36093 | 110.89549 | 27666 ft | 368 kts | 244° |
| 2026-04-22 13:14 | 34.34770 | 110.86902 | 27662 ft | 368 kts | 244° |
| 2026-04-22 13:14 | 34.33445 | 110.84257 | 27665 ft | 367 kts | 243° |
| 2026-04-22 13:14 | 34.32122 | 110.81619 | 27670 ft | 367 kts | 244° |
| 2026-04-22 13:15 | 34.30793 | 110.78976 | 27670 ft | 367 kts | 244° |
| 2026-04-22 13:15 | 34.29476 | 110.76371 | 27665 ft | 366 kts | 243° |
| 2026-04-22 13:15 | 34.28153 | 110.73752 | 27660 ft | 364 kts | 244° |
| 2026-04-22 13:15 | 34.26833 | 110.71119 | 27676 ft | 365 kts | 243° |
| 2026-04-22 13:16 | 34.25525 | 110.68525 | 27664 ft | 366 kts | 243° |
| 2026-04-22 13:16 | 34.24202 | 110.65906 | 27668 ft | 364 kts | 244° |
| 2026-04-22 13:16 | 34.22874 | 110.63296 | 27671 ft | 366 kts | 244° |
| 2026-04-22 13:16 | 34.21541 | 110.60664 | 27670 ft | 365 kts | 243° |
| 2026-04-22 13:17 | 34.20230 | 110.58066 | 27659 ft | 363 kts | 243° |
| 2026-04-22 13:17 | 34.18910 | 110.55460 | 27673 ft | 363 kts | 244° |
| 2026-04-22 13:17 | 34.17596 | 110.52831 | 27677 ft | 365 kts | 244° |
| 2026-04-22 13:17 | 34.16267 | 110.50195 | 27664 ft | 365 kts | 243° |
| 2026-04-22 13:18 | 34.14939 | 110.47566 | 27663 ft | 364 kts | 243° |
| 2026-04-22 13:18 | 34.13633 | 110.44965 | 27669 ft | 364 kts | 244° |
| 2026-04-22 13:18 | 34.12321 | 110.42354 | 27659 ft | 364 kts | 244° |
| 2026-04-22 13:18 | 34.11005 | 110.39745 | 27661 ft | 364 kts | 244° |
| 2026-04-22 13:19 | 34.09690 | 110.37123 | 27665 ft | 364 kts | 244° |
| 2026-04-22 13:19 | 34.08392 | 110.34541 | 27669 ft | 362 kts | 244° |
| 2026-04-22 13:19 | 34.07073 | 110.31928 | 27657 ft | 365 kts | 244° |
| 2026-04-22 13:19 | 34.05761 | 110.29322 | 27672 ft | 364 kts | 244° |
| 2026-04-22 13:20 | 34.04451 | 110.26717 | 27666 ft | 364 kts | 244° |
| 2026-04-22 13:20 | 34.03119 | 110.24068 | 27662 ft | 365 kts | 244° |
| 2026-04-22 13:20 | 34.01799 | 110.21457 | 27657 ft | 363 kts | 244° |
| 2026-04-22 13:20 | 34.00480 | 110.18855 | 27658 ft | 362 kts | 244° |
| 2026-04-22 13:21 | 33.99150 | 110.16242 | 27666 ft | 365 kts | 244° |
| 2026-04-22 13:21 | 33.97843 | 110.13656 | 27663 ft | 363 kts | 244° |
| 2026-04-22 13:21 | 33.96531 | 110.11055 | 27659 ft | 362 kts | 244° |
| 2026-04-22 13:21 | 33.95237 | 110.08488 | 27662 ft | 362 kts | 244° |
| 2026-04-22 13:22 | 33.93914 | 110.05894 | 27663 ft | 364 kts | 244° |
| 2026-04-22 13:22 | 33.92584 | 110.03273 | 27663 ft | 364 kts | 244° |
| 2026-04-22 13:22 | 33.91277 | 110.00687 | 27662 ft | 362 kts | 244° |
| 2026-04-22 13:22 | 33.89973 | 109.98107 | 27663 ft | 364 kts | 244° |
| 2026-04-22 13:23 | 33.88712 | 109.95457 | 27665 ft | 363 kts | 247° |
| 2026-04-22 13:23 | 33.87697 | 109.92722 | 27668 ft | 358 kts | 252° |
| 2026-04-22 13:23 | 33.86893 | 109.89906 | 27676 ft | 358 kts | 256° |
| 2026-04-22 13:23 | 33.86193 | 109.86990 | 27685 ft | 361 kts | 257° |
| 2026-04-22 13:24 | 33.85552 | 109.84073 | 27681 ft | 359 kts | 257° |
| 2026-04-22 13:24 | 33.84934 | 109.81203 | 27683 ft | 360 kts | 258° |
| 2026-04-22 13:24 | 33.84294 | 109.78274 | 27690 ft | 360 kts | 257° |
| 2026-04-22 13:24 | 33.83667 | 109.75406 | 27683 ft | 356 kts | 258° |
| 2026-04-22 13:25 | 33.83036 | 109.72520 | 27685 ft | 359 kts | 257° |
| 2026-04-22 13:25 | 33.82404 | 109.69643 | 27687 ft | 360 kts | 257° |
| 2026-04-22 13:25 | 33.81754 | 109.66711 | 27696 ft | 361 kts | 257° |
| 2026-04-22 13:25 | 33.81119 | 109.63837 | 27697 ft | 358 kts | 258° |
| 2026-04-22 13:26 | 33.80424 | 109.60967 | 27703 ft | 361 kts | 255° |
| 2026-04-22 13:26 | 33.79446 | 109.58150 | 27706 ft | 365 kts | 246° |
| 2026-04-22 13:26 | 33.78024 | 109.55609 | 27712 ft | 370 kts | 237° |
| 2026-04-22 13:26 | 33.76271 | 109.53356 | 27714 ft | 374 kts | 230° |
| 2026-04-22 13:27 | 33.74272 | 109.51282 | 27716 ft | 383 kts | 226° |
| 2026-04-22 13:27 | 33.72063 | 109.49416 | 27714 ft | 388 kts | 221° |
| 2026-04-22 13:27 | 33.69749 | 109.47736 | 27711 ft | 389 kts | 219° |
| 2026-04-22 13:27 | 33.67384 | 109.46093 | 27706 ft | 388 kts | 218° |
| 2026-04-22 13:28 | 33.65041 | 109.44484 | 27705 ft | 387 kts | 218° |
| 2026-04-22 13:28 | 33.62705 | 109.42878 | 27702 ft | 389 kts | 219° |
| 2026-04-22 13:28 | 33.60332 | 109.41238 | 27702 ft | 389 kts | 218° |
| 2026-04-22 13:28 | 33.58004 | 109.39623 | 27700 ft | 390 kts | 218° |
| 2026-04-22 13:29 | 33.55649 | 109.37984 | 27697 ft | 389 kts | 219° |
| 2026-04-22 13:29 | 33.53302 | 109.36344 | 27696 ft | 390 kts | 219° |
| 2026-04-22 13:29 | 33.50940 | 109.34690 | 27697 ft | 391 kts | 218° |
| 2026-04-22 13:29 | 33.48587 | 109.33036 | 27700 ft | 392 kts | 218° |
| 2026-04-22 13:30 | 33.46240 | 109.31388 | 27703 ft | 388 kts | 218° |
| 2026-04-22 13:30 | 33.43916 | 109.29760 | 27709 ft | 390 kts | 218° |
| 2026-04-22 13:30 | 33.41573 | 109.28118 | 27712 ft | 392 kts | 218° |
| 2026-04-22 13:30 | 33.39222 | 109.26466 | 27710 ft | 390 kts | 218° |
| 2026-04-22 13:31 | 33.36889 | 109.24826 | 27714 ft | 388 kts | 218° |
| 2026-04-22 13:31 | 33.34549 | 109.23186 | 27715 ft | 389 kts | 219° |
| 2026-04-22 13:31 | 33.32219 | 109.21557 | 27712 ft | 391 kts | 218° |
| 2026-04-22 13:31 | 33.29856 | 109.19899 | 27712 ft | 389 kts | 218° |
| 2026-04-22 13:32 | 33.27516 | 109.18259 | 27712 ft | 391 kts | 218° |
| 2026-04-22 13:32 | 33.25146 | 109.16599 | 27702 ft | 391 kts | 218° |
| 2026-04-22 13:32 | 33.22806 | 109.14967 | 27703 ft | 390 kts | 218° |
| 2026-04-22 13:32 | 33.20462 | 109.13330 | 27697 ft | 391 kts | 218° |
| 2026-04-22 13:33 | 33.18117 | 109.11690 | 27695 ft | 392 kts | 218° |
| 2026-04-22 13:33 | 33.15767 | 109.10048 | 27690 ft | 389 kts | 218° |
| 2026-04-22 13:33 | 33.13408 | 109.08409 | 27689 ft | 389 kts | 218° |
| 2026-04-22 13:33 | 33.11077 | 109.06795 | 27688 ft | 391 kts | 218° |
| 2026-04-22 13:34 | 33.08722 | 109.05158 | 27687 ft | 392 kts | 218° |
| 2026-04-22 13:34 | 33.06369 | 109.03527 | 27686 ft | 391 kts | 218° |
| 2026-04-22 13:34 | 33.04002 | 109.01892 | 27687 ft | 391 kts | 218° |
| 2026-04-22 13:34 | 33.01640 | 109.00258 | 27687 ft | 391 kts | 218° |
| 2026-04-22 13:35 | 32.99316 | 108.98644 | 27684 ft | 390 kts | 218° |
| 2026-04-22 13:35 | 32.96955 | 108.97002 | 27686 ft | 393 kts | 218° |
| 2026-04-22 13:35 | 32.94590 | 108.95363 | 27678 ft | 391 kts | 218° |
| 2026-04-22 13:35 | 32.92251 | 108.93737 | 27675 ft | 391 kts | 218° |
| 2026-04-22 13:36 | 32.89901 | 108.92102 | 27667 ft | 391 kts | 218° |
| 2026-04-22 13:36 | 32.87539 | 108.90467 | 27671 ft | 393 kts | 218° |
| 2026-04-22 13:36 | 32.85169 | 108.88831 | 27677 ft | 392 kts | 218° |
| 2026-04-22 13:36 | 32.82818 | 108.87207 | 27689 ft | 389 kts | 217° |
| 2026-04-22 13:37 | 32.80461 | 108.85581 | 27675 ft | 388 kts | 218° |
| 2026-04-22 13:37 | 32.78108 | 108.83960 | 27674 ft | 393 kts | 218° |
| 2026-04-22 13:37 | 32.75766 | 108.82343 | 27673 ft | 391 kts | 218° |
| 2026-04-22 13:37 | 32.73440 | 108.80734 | 27673 ft | 388 kts | 218° |
| 2026-04-22 13:38 | 32.71074 | 108.79106 | 27667 ft | 389 kts | 218° |
| 2026-04-22 13:38 | 32.66396 | 108.75877 | 27668 ft | 392 kts | 218° |
| 2026-04-22 13:38 | 32.64016 | 108.74239 | 27679 ft | 391 kts | 217° |
| 2026-04-22 13:39 | 32.61687 | 108.72648 | 27677 ft | 389 kts | 218° |
| 2026-04-22 13:39 | 32.59317 | 108.71027 | 27674 ft | 390 kts | 217° |
| 2026-04-22 13:39 | 32.56962 | 108.69411 | 27683 ft | 391 kts | 217° |
| 2026-04-22 13:39 | 32.54619 | 108.67807 | 27687 ft | 392 kts | 217° |
| 2026-04-22 13:40 | 32.52246 | 108.66181 | 27699 ft | 392 kts | 217° |
| 2026-04-22 13:40 | 32.49911 | 108.64584 | 27693 ft | 391 kts | 218° |
| 2026-04-22 13:40 | 32.47585 | 108.62938 | 27693 ft | 389 kts | 220° |
| 2026-04-22 13:40 | 32.45444 | 108.61043 | 27694 ft | 382 kts | 228° |
| 2026-04-22 13:41 | 32.43613 | 108.58775 | 27705 ft | 377 kts | 236° |
| 2026-04-22 13:41 | 32.42137 | 108.56245 | 27703 ft | 372 kts | 243° |
| 2026-04-22 13:41 | 32.40947 | 108.53577 | 27711 ft | 371 kts | 248° |
| 2026-04-22 13:41 | 32.40004 | 108.50723 | 27714 ft | 370 kts | 253° |
| 2026-04-22 13:42 | 32.39288 | 108.47792 | 27716 ft | 369 kts | 256° |
| 2026-04-22 13:42 | 32.38668 | 108.44872 | 27713 ft | 368 kts | 257° |
| 2026-04-22 13:42 | 32.38065 | 108.41952 | 27715 ft | 366 kts | 257° |
| 2026-04-22 13:42 | 32.37447 | 108.38992 | 27712 ft | 367 kts | 257° |
| 2026-04-22 13:43 | 32.36824 | 108.36083 | 27706 ft | 368 kts | 257° |
| 2026-04-22 13:43 | 32.36192 | 108.33149 | 27704 ft | 370 kts | 256° |
| 2026-04-22 13:43 | 32.35553 | 108.30203 | 27695 ft | 367 kts | 256° |
| 2026-04-22 13:43 | 32.34914 | 108.27273 | 27691 ft | 368 kts | 256° |
| 2026-04-22 13:44 | 32.34252 | 108.24315 | 27694 ft | 369 kts | 256° |
| 2026-04-22 13:44 | 32.33552 | 108.21410 | 27698 ft | 368 kts | 255° |
| 2026-04-22 13:44 | 32.32811 | 108.18536 | 27688 ft | 366 kts | 254° |
| 2026-04-22 13:44 | 32.32052 | 108.15642 | 27689 ft | 367 kts | 254° |
| 2026-04-22 13:45 | 32.31298 | 108.12769 | 27691 ft | 369 kts | 254° |
| 2026-04-22 13:45 | 32.30534 | 108.09838 | 27687 ft | 370 kts | 254° |
| 2026-04-22 13:45 | 32.29784 | 108.06956 | 27693 ft | 367 kts | 255° |
| 2026-04-22 13:45 | 32.29042 | 108.04089 | 27690 ft | 368 kts | 254° |
| 2026-04-22 13:46 | 32.28287 | 108.01175 | 27691 ft | 369 kts | 254° |
| 2026-04-22 13:46 | 32.27543 | 107.98296 | 27688 ft | 369 kts | 254° |
| 2026-04-22 13:46 | 32.26802 | 107.95428 | 27686 ft | 369 kts | 254° |
| 2026-04-22 13:46 | 32.26054 | 107.92531 | 27686 ft | 368 kts | 254° |
| 2026-04-22 13:47 | 32.25304 | 107.89625 | 27681 ft | 367 kts | 254° |
| 2026-04-22 13:47 | 32.24561 | 107.86738 | 27680 ft | 370 kts | 254° |
| 2026-04-22 13:47 | 32.23808 | 107.83816 | 27672 ft | 369 kts | 254° |
| 2026-04-22 13:47 | 32.23063 | 107.80935 | 27665 ft | 368 kts | 255° |
| 2026-04-22 13:48 | 32.22319 | 107.78044 | 27672 ft | 369 kts | 254° |
| 2026-04-22 13:48 | 32.21559 | 107.75114 | 27669 ft | 368 kts | 254° |
| 2026-04-22 13:48 | 32.20805 | 107.72243 | 27675 ft | 368 kts | 253° |
| 2026-04-22 13:48 | 32.19921 | 107.69376 | 27675 ft | 368 kts | 249° |
| 2026-04-22 13:49 | 32.18721 | 107.66727 | 27668 ft | 372 kts | 240° |
| 2026-04-22 13:49 | 32.17090 | 107.64311 | 27676 ft | 378 kts | 231° |
| 2026-04-22 13:49 | 32.15153 | 107.62172 | 27676 ft | 383 kts | 226° |
| 2026-04-22 13:49 | 32.13071 | 107.60207 | 27674 ft | 386 kts | 224° |
| 2026-04-22 13:50 | 32.10933 | 107.58300 | 27676 ft | 386 kts | 223° |
| 2026-04-22 13:50 | 32.08772 | 107.56407 | 27670 ft | 387 kts | 223° |
| 2026-04-22 13:50 | 32.06614 | 107.54521 | 27667 ft | 386 kts | 223° |
| 2026-04-22 13:50 | 32.04466 | 107.52639 | 27666 ft | 389 kts | 223° |
| 2026-04-22 13:51 | 32.02274 | 107.50726 | 27655 ft | 387 kts | 223° |
| 2026-04-22 13:51 | 32.00098 | 107.48814 | 27658 ft | 390 kts | 223° |
| 2026-04-22 13:51 | 31.97943 | 107.46923 | 27657 ft | 388 kts | 223° |
| 2026-04-22 13:51 | 31.95790 | 107.45031 | 27656 ft | 386 kts | 223° |
| 2026-04-22 13:52 | 31.93624 | 107.43124 | 27657 ft | 385 kts | 223° |
| 2026-04-22 13:52 | 31.91488 | 107.41236 | 27654 ft | 386 kts | 223° |
| 2026-04-22 13:52 | 31.89314 | 107.39317 | 27650 ft | 385 kts | 223° |
| 2026-04-22 13:52 | 31.87160 | 107.37421 | 27649 ft | 388 kts | 223° |
| 2026-04-22 13:53 | 31.84989 | 107.35505 | 27642 ft | 389 kts | 223° |
| 2026-04-22 13:53 | 31.82818 | 107.33588 | 27641 ft | 390 kts | 222° |
| 2026-04-22 13:53 | 31.80646 | 107.31705 | 27642 ft | 388 kts | 222° |
| 2026-04-22 13:53 | 31.78375 | 107.29939 | 27636 ft | 392 kts | 217° |
| 2026-04-22 13:54 | 31.75969 | 107.28429 | 27638 ft | 396 kts | 212° |
| 2026-04-22 13:54 | 31.73445 | 107.27067 | 27632 ft | 399 kts | 211° |
| 2026-04-22 13:54 | 31.70901 | 107.25771 | 27621 ft | 401 kts | 210° |
| 2026-04-22 13:54 | 31.68353 | 107.24490 | 27620 ft | 400 kts | 210° |
| 2026-04-22 13:55 | 31.65780 | 107.23196 | 27628 ft | 401 kts | 210° |
| 2026-04-22 13:55 | 31.63242 | 107.21907 | 27627 ft | 400 kts | 210° |
| 2026-04-22 13:55 | 31.60659 | 107.20591 | 27631 ft | 400 kts | 210° |
| 2026-04-22 13:55 | 31.58116 | 107.19295 | 27642 ft | 400 kts | 210° |
| 2026-04-22 13:56 | 31.55588 | 107.18004 | 27634 ft | 398 kts | 210° |
| 2026-04-22 13:56 | 31.53035 | 107.16695 | 27637 ft | 401 kts | 210° |
| 2026-04-22 13:56 | 31.50485 | 107.15382 | 27643 ft | 402 kts | 210° |
| 2026-04-22 13:56 | 31.47902 | 107.14054 | 27642 ft | 400 kts | 210° |
| 2026-04-22 13:57 | 31.45360 | 107.12751 | 27638 ft | 403 kts | 210° |
| 2026-04-22 13:57 | 31.42789 | 107.11430 | 27639 ft | 403 kts | 210° |
| 2026-04-22 13:57 | 31.40206 | 107.10111 | 27635 ft | 402 kts | 210° |
| 2026-04-22 13:57 | 31.37639 | 107.08794 | 27634 ft | 401 kts | 210° |
| 2026-04-22 13:58 | 31.35086 | 107.07484 | 27636 ft | 402 kts | 210° |
| 2026-04-22 13:58 | 31.32504 | 107.06162 | 27631 ft | 401 kts | 210° |
| 2026-04-22 13:58 | 31.29961 | 107.04862 | 27633 ft | 403 kts | 210° |
| 2026-04-22 13:58 | 31.27392 | 107.03550 | 27632 ft | 401 kts | 210° |
| 2026-04-22 13:59 | 31.24840 | 107.02243 | 27633 ft | 402 kts | 210° |
| 2026-04-22 13:59 | 31.22289 | 107.00936 | 27633 ft | 404 kts | 210° |
| 2026-04-22 13:59 | 31.19692 | 106.99607 | 27633 ft | 402 kts | 210° |
| 2026-04-22 13:59 | 31.17130 | 106.98295 | 27628 ft | 402 kts | 210° |
| 2026-04-22 14:00 | 31.14569 | 106.96986 | 27633 ft | 403 kts | 210° |
| 2026-04-22 14:00 | 31.12001 | 106.95671 | 27627 ft | 403 kts | 210° |
| 2026-04-22 14:00 | 31.09439 | 106.94360 | 27625 ft | 405 kts | 210° |
| 2026-04-22 14:00 | 31.06832 | 106.93027 | 27623 ft | 407 kts | 209° |
| 2026-04-22 14:01 | 31.04254 | 106.91715 | 27620 ft | 405 kts | 209° |
| 2026-04-22 14:01 | 31.01680 | 106.90409 | 27621 ft | 406 kts | 210° |
| 2026-04-22 14:01 | 30.99079 | 106.89083 | 27615 ft | 406 kts | 209° |
| 2026-04-22 14:01 | 30.96511 | 106.87784 | 27613 ft | 404 kts | 209° |
| 2026-04-22 14:02 | 30.93915 | 106.86472 | 27619 ft | 405 kts | 209° |
| 2026-04-22 14:02 | 30.91305 | 106.85148 | 27615 ft | 407 kts | 209° |
| 2026-04-22 14:02 | 30.88733 | 106.83843 | 27613 ft | 406 kts | 209° |
| 2026-04-22 14:02 | 30.86130 | 106.82519 | 27615 ft | 405 kts | 209° |
| 2026-04-22 14:03 | 30.83568 | 106.81222 | 27618 ft | 405 kts | 209° |
| 2026-04-22 14:03 | 30.80970 | 106.79904 | 27615 ft | 405 kts | 209° |
| 2026-04-22 14:03 | 30.78405 | 106.78603 | 27620 ft | 402 kts | 209° |
| 2026-04-22 14:03 | 30.75806 | 106.77284 | 27620 ft | 404 kts | 209° |
| 2026-04-22 14:04 | 30.73238 | 106.75983 | 27623 ft | 406 kts | 209° |
| 2026-04-22 14:04 | 30.70618 | 106.74660 | 27621 ft | 405 kts | 209° |
| 2026-04-22 14:04 | 30.68055 | 106.73370 | 27620 ft | 404 kts | 209° |
| 2026-04-22 14:04 | 30.65453 | 106.72064 | 27624 ft | 405 kts | 209° |
| 2026-04-22 14:05 | 30.62815 | 106.70867 | 27423 ft | 410 kts | 205° |
| 2026-04-22 14:05 | 30.59998 | 106.70073 | 27160 ft | 419 kts | 194° |
| 2026-04-22 14:05 | 30.54107 | 106.70042 | 26665 ft | 430 kts | 182° |
| 2026-04-22 14:06 | 30.51097 | 106.70325 | 26412 ft | 433 kts | 181° |
| 2026-04-22 14:06 | 30.48087 | 106.70648 | 26167 ft | 437 kts | 180° |
| 2026-04-22 14:06 | 30.45015 | 106.70991 | 25851 ft | 439 kts | 180° |
| 2026-04-22 14:06 | 30.42009 | 106.71322 | 25411 ft | 440 kts | 180° |
| 2026-04-22 14:07 | 30.38917 | 106.71651 | 24868 ft | 440 kts | 180° |
| 2026-04-22 14:07 | 30.35922 | 106.71932 | 24341 ft | 434 kts | 181° |
| 2026-04-22 14:07 | 30.32891 | 106.71993 | 23810 ft | 425 kts | 189° |
| 2026-04-22 14:07 | 30.29983 | 106.71513 | 23278 ft | 415 kts | 197° |
| 2026-04-22 14:08 | 30.27209 | 106.70712 | 22758 ft | 409 kts | 201° |
| 2026-04-22 14:08 | 30.24493 | 106.69767 | 22231 ft | 405 kts | 202° |
| 2026-04-22 14:08 | 30.21837 | 106.68783 | 21720 ft | 402 kts | 203° |
| 2026-04-22 14:08 | 30.19191 | 106.67792 | 21214 ft | 398 kts | 202° |
| 2026-04-22 14:09 | 30.16553 | 106.66813 | 20714 ft | 395 kts | 202° |
| 2026-04-22 14:09 | 30.13923 | 106.65852 | 20208 ft | 392 kts | 201° |
| 2026-04-22 14:09 | 30.11295 | 106.64906 | 19708 ft | 388 kts | 201° |
| 2026-04-22 14:09 | 30.08706 | 106.63985 | 19220 ft | 385 kts | 201° |
| 2026-04-22 14:10 | 30.06187 | 106.63097 | 18742 ft | 381 kts | 200° |
| 2026-04-22 14:10 | 30.03632 | 106.62201 | 18263 ft | 377 kts | 200° |
| 2026-04-22 14:10 | 30.01152 | 106.61334 | 17786 ft | 374 kts | 200° |
| 2026-04-22 14:10 | 29.98651 | 106.60463 | 17322 ft | 370 kts | 199° |
| 2026-04-22 14:11 | 29.96200 | 106.59611 | 16856 ft | 367 kts | 199° |
| 2026-04-22 14:11 | 29.93764 | 106.58765 | 16396 ft | 363 kts | 199° |
| 2026-04-22 14:11 | 29.91365 | 106.57934 | 15949 ft | 360 kts | 199° |
| 2026-04-22 14:11 | 29.88978 | 106.57107 | 15493 ft | 357 kts | 199° |
| 2026-04-22 14:12 | 29.86607 | 106.56288 | 15045 ft | 354 kts | 199° |
| 2026-04-22 14:12 | 29.84239 | 106.55470 | 14608 ft | 351 kts | 199° |
| 2026-04-22 14:12 | 29.81907 | 106.54665 | 14164 ft | 348 kts | 199° |
| 2026-04-22 14:12 | 29.79576 | 106.53861 | 13715 ft | 345 kts | 199° |
| 2026-04-22 14:13 | 29.77298 | 106.53073 | 13300 ft | 342 kts | 198° |
| 2026-04-22 14:13 | 29.75005 | 106.52282 | 12867 ft | 340 kts | 198° |
| 2026-04-22 14:13 | 29.72753 | 106.51505 | 12443 ft | 338 kts | 198° |
| 2026-04-22 14:13 | 29.70493 | 106.50725 | 12043 ft | 335 kts | 198° |
| 2026-04-22 14:14 | 29.68304 | 106.49972 | 11893 ft | 324 kts | 198° |
| 2026-04-22 14:14 | 29.66132 | 106.49225 | 11452 ft | 324 kts | 198° |
| 2026-04-22 14:14 | 29.63985 | 106.48486 | 11227 ft | 316 kts | 198° |
| 2026-04-22 14:14 | 29.61891 | 106.47765 | 11008 ft | 308 kts | 198° |
| 2026-04-22 14:15 | 29.59830 | 106.47057 | 10666 ft | 307 kts | 198° |
| 2026-04-22 14:15 | 29.57786 | 106.46354 | 10295 ft | 306 kts | 197° |
| 2026-04-22 14:15 | 29.55751 | 106.45656 | 9930 ft | 304 kts | 197° |
| 2026-04-22 14:15 | 29.53729 | 106.44964 | 9563 ft | 303 kts | 197° |
| 2026-04-22 14:16 | 29.51708 | 106.44273 | 9184 ft | 303 kts | 197° |
| 2026-04-22 14:16 | 29.49671 | 106.43576 | 8892 ft | 298 kts | 197° |
| 2026-04-22 14:16 | 29.47720 | 106.42906 | 8806 ft | 286 kts | 197° |
| 2026-04-22 14:16 | 29.45846 | 106.42326 | 8727 ft | 275 kts | 191° |
| 2026-04-22 14:17 | 29.43988 | 106.42214 | 8663 ft | 259 kts | 168° |
| 2026-04-22 14:17 | 29.42418 | 106.43029 | 8510 ft | 244 kts | 136° |
| 2026-04-22 14:17 | 29.41371 | 106.44514 | 8228 ft | 234 kts | 113° |
| 2026-04-22 14:17 | 29.40781 | 106.46213 | 7980 ft | 228 kts | 103° |
| 2026-04-22 14:18 | 29.40319 | 106.47954 | 7749 ft | 227 kts | 103° |
| 2026-04-22 14:18 | 29.39904 | 106.49637 | 7594 ft | 217 kts | 98° |
| 2026-04-22 14:18 | 29.39802 | 106.51322 | 7341 ft | 204 kts | 74° |
| 2026-04-22 14:18 | 29.40426 | 106.52669 | 7094 ft | 190 kts | 39° |
| 2026-04-22 14:19 | 29.41543 | 106.53457 | 6854 ft | 187 kts | 24° |
| 2026-04-22 14:19 | 29.42729 | 106.54035 | 6609 ft | 186 kts | 20° |
| 2026-04-22 14:19 | 29.43952 | 106.54539 | 6364 ft | 184 kts | 18° |
| 2026-04-22 14:19 | 29.45172 | 106.54985 | 6120 ft | 185 kts | 17° |
| 2026-04-22 14:20 | 29.47648 | 106.55844 | 5647 ft | 185 kts | 16° |
| 2026-04-22 14:20 | 29.48886 | 106.56268 | 5425 ft | 185 kts | 17° |
| 2026-04-22 14:20 | 29.50140 | 106.56698 | 5204 ft | 185 kts | 16° |
| 2026-04-22 14:21 | 29.52600 | 106.57539 | 4770 ft | 184 kts | 16° |
| 2026-04-22 14:21 | 29.53837 | 106.57963 | 4573 ft | 186 kts | 16° |
| 2026-04-22 14:22 | 29.56287 | 106.58802 | 4269 ft | 180 kts | 16° |
| 2026-04-22 14:22 | 29.57485 | 106.59212 | 4016 ft | 177 kts | 16° |
| 2026-04-22 14:22 | 29.59718 | 106.59978 | 3531 ft | 157 kts | 15° |
| 2026-04-22 14:23 | 29.60757 | 106.60332 | 3346 ft | 156 kts | 15° |
| 2026-04-22 14:23 | 29.61808 | 106.60692 | 3134 ft | 158 kts | 15° |
| 2026-04-22 14:23 | 29.62852 | 106.61053 | 2926 ft | 154 kts | 15° |
| 2026-04-22 14:23 | 29.63888 | 106.61407 | 2714 ft | 153 kts | 15° |
| 2026-04-22 14:24 | 29.64901 | 106.61754 | 2511 ft | 151 kts | 15° |
| 2026-04-22 14:24 | 29.65901 | 106.62096 | 2309 ft | 152 kts | 15° |
| 2026-04-22 14:24 | 29.66905 | 106.62441 | 2117 ft | 148 kts | 15° |
| 2026-04-22 14:24 | 29.67895 | 106.62781 | 1926 ft | 148 kts | 16° |
| 2026-04-22 14:25 | 29.68897 | 106.63115 | 1720 ft | 150 kts | 14° |
| 2026-04-22 14:25 | 29.69904 | 106.63469 | 1526 ft | 149 kts | 15° |
| 2026-04-22 14:25 | 29.70906 | 106.63805 | 1371 ft | 146 kts | 16° |
| 2026-04-22 14:25 | 29.71646 | 106.64061 | 1369 ft | 73 kts | 17° |
| 2026-04-22 14:26 | 29.71939 | 106.64172 | 1370 ft | 22 kts | 28° |
| 2026-04-22 14:26 | 29.72065 | 106.64274 | 1370 ft | 21 kts | 44° |
| 2026-04-22 14:26 | 29.72145 | 106.64366 | 1370 ft | 12 kts | 46° |
| 2026-04-22 14:26 | 29.72205 | 106.64436 | 1370 ft | 10 kts | 50° |
| 2026-04-22 14:27 | 29.72210 | 106.64508 | 1370 ft | 9 kts | 106° |
| 2026-04-22 14:27 | 29.72193 | 106.64579 | 1370 ft | 9 kts | 106° |
| 2026-04-22 14:27 | 29.72174 | 106.64653 | 1370 ft | 11 kts | 107° |
| 2026-04-22 14:27 | 29.72148 | 106.64751 | 1370 ft | 13 kts | 107° |
| 2026-04-22 14:28 | 29.72121 | 106.64853 | 1370 ft | 13 kts | 106° |
| 2026-04-22 14:28 | 29.72096 | 106.64947 | 1370 ft | 8 kts | 107° |
| 2026-04-22 14:28 | 29.72055 | 106.64987 | 1370 ft | 8 kts | 178° |
| 2026-04-22 14:28 | 29.72001 | 106.64973 | 1370 ft | 7 kts | 197° |
| 2026-04-22 14:29 | 29.71946 | 106.64954 | 1370 ft | 8 kts | 197° |
| 2026-04-22 14:29 | 29.71905 | 106.64954 | 1370 ft | 5 kts | 138° |
| 2026-04-22 14:29 | 29.71889 | 106.64992 | 1370 ft | 3 kts | 107° |
| 2026-04-22 14:29 | 29.71888 | 106.65000 | 1370 ft | 0 kts | 107° |
| 2026-04-22 14:30 | 29.71886 | 106.65008 | 1370 ft | 0 kts | 107° |
| 2026-04-22 14:30 | 29.71883 | 106.65016 | 1370 ft | 0 kts | 106° |
| 2026-04-22 14:30 | 29.71883 | 106.65018 | 1370 ft | 0 kts | 107° |